sensor_id;sensor_type;location;lat;lon;timestamp;temperature;humidity
19483;DHT22;9882;51.166;6.992;2023-06-14T00:00:47;25.70;54.70
19483;DHT22;9882;51.166;6.992;2023-06-14T00:03:16;25.70;56.80
19483;DHT22;9882;51.166;6.992;2023-06-14T00:05:49;25.70;56.80
19483;DHT22;9882;51.166;6.992;2023-06-14T00:08:18;25.70;55.50
19483;DHT22;9882;51.166;6.992;2023-06-14T00:10:50;25.70;56.20
19483;DHT22;9882;51.166;6.992;2023-06-14T00:13:19;25.40;56.40
19483;DHT22;9882;51.166;6.992;2023-06-14T00:15:47;25.40;55.20
19483;DHT22;9882;51.166;6.992;2023-06-14T00:18:16;25.30;55.00
19483;DHT22;9882;51.166;6.992;2023-06-14T00:20:45;25.40;54.20
19483;DHT22;9882;51.166;6.992;2023-06-14T00:23:14;25.40;56.40
19483;DHT22;9882;51.166;6.992;2023-06-14T00:25:43;25.40;59.20
19483;DHT22;9882;51.166;6.992;2023-06-14T00:28:14;25.30;61.20
19483;DHT22;9882;51.166;6.992;2023-06-14T00:30:43;25.20;60.60
19483;DHT22;9882;51.166;6.992;2023-06-14T00:33:14;25.30;64.00
19483;DHT22;9882;51.166;6.992;2023-06-14T00:35:43;25.20;64.10
19483;DHT22;9882;51.166;6.992;2023-06-14T00:38:12;25.20;64.60
19483;DHT22;9882;51.166;6.992;2023-06-14T00:40:41;25.20;66.30
19483;DHT22;9882;51.166;6.992;2023-06-14T00:43:14;24.90;65.30
19483;DHT22;9882;51.166;6.992;2023-06-14T00:45:43;25.00;66.10
19483;DHT22;9882;51.166;6.992;2023-06-14T00:48:14;24.90;69.50
19483;DHT22;9882;51.166;6.992;2023-06-14T00:50:43;24.90;68.80
19483;DHT22;9882;51.166;6.992;2023-06-14T00:53:15;24.80;75.30
19483;DHT22;9882;51.166;6.992;2023-06-14T00:55:46;24.80;75.90
19483;DHT22;9882;51.166;6.992;2023-06-14T00:58:19;24.80;78.20
19483;DHT22;9882;51.166;6.992;2023-06-14T01:00:49;24.70;79.20
19483;DHT22;9882;51.166;6.992;2023-06-14T01:03:18;24.70;82.00
19483;DHT22;9882;51.166;6.992;2023-06-14T01:05:53;24.70;83.50
19483;DHT22;9882;51.166;6.992;2023-06-14T01:08:28;24.60;84.60
19483;DHT22;9882;51.166;6.992;2023-06-14T01:11:05;24.50;85.20
19483;DHT22;9882;51.166;6.992;2023-06-14T01:13:38;24.50;83.30
19483;DHT22;9882;51.166;6.992;2023-06-14T01:16:08;24.50;81.30
19483;DHT22;9882;51.166;6.992;2023-06-14T01:18:39;24.40;80.60
19483;DHT22;9882;51.166;6.992;2023-06-14T01:21:20;24.40;77.90
19483;DHT22;9882;51.166;6.992;2023-06-14T01:23:51;24.40;80.50
19483;DHT22;9882;51.166;6.992;2023-06-14T01:26:22;24.30;81.70
19483;DHT22;9882;51.166;6.992;2023-06-14T01:28:52;24.30;82.60
19483;DHT22;9882;51.166;6.992;2023-06-14T01:31:26;24.30;83.10
19483;DHT22;9882;51.166;6.992;2023-06-14T01:33:57;24.20;85.30
19483;DHT22;9882;51.166;6.992;2023-06-14T01:36:28;24.20;85.20
19483;DHT22;9882;51.166;6.992;2023-06-14T01:38:59;24.20;85.70
19483;DHT22;9882;51.166;6.992;2023-06-14T01:41:28;24.10;86.40
19483;DHT22;9882;51.166;6.992;2023-06-14T01:43:58;24.10;89.80
19483;DHT22;9882;51.166;6.992;2023-06-14T01:46:27;24.00;90.70
19483;DHT22;9882;51.166;6.992;2023-06-14T01:48:56;23.90;91.60
19483;DHT22;9882;51.166;6.992;2023-06-14T01:51:26;23.90;91.40
19483;DHT22;9882;51.166;6.992;2023-06-14T01:53:55;23.90;91.90
19483;DHT22;9882;51.166;6.992;2023-06-14T01:56:26;23.90;92.00
19483;DHT22;9882;51.166;6.992;2023-06-14T01:58:55;23.80;92.20
19483;DHT22;9882;51.166;6.992;2023-06-14T02:01:25;23.80;92.10
19483;DHT22;9882;51.166;6.992;2023-06-14T02:03:54;23.70;92.30
19483;DHT22;9882;51.166;6.992;2023-06-14T02:06:26;23.70;92.30
19483;DHT22;9882;51.166;6.992;2023-06-14T02:08:55;23.60;92.70
19483;DHT22;9882;51.166;6.992;2023-06-14T02:11:29;23.60;92.30
19483;DHT22;9882;51.166;6.992;2023-06-14T02:13:58;23.50;92.60
19483;DHT22;9882;51.166;6.992;2023-06-14T02:16:29;23.50;93.30
19483;DHT22;9882;51.166;6.992;2023-06-14T02:18:58;23.50;93.30
19483;DHT22;9882;51.166;6.992;2023-06-14T02:21:27;23.40;93.40
19483;DHT22;9882;51.166;6.992;2023-06-14T02:23:56;23.40;92.10
19483;DHT22;9882;51.166;6.992;2023-06-14T02:26:29;23.40;92.70
19483;DHT22;9882;51.166;6.992;2023-06-14T02:28:59;23.30;88.10
19483;DHT22;9882;51.166;6.992;2023-06-14T02:31:28;23.40;90.90
19483;DHT22;9882;51.166;6.992;2023-06-14T02:33:57;23.30;90.90
19483;DHT22;9882;51.166;6.992;2023-06-14T02:36:26;23.20;90.00
19483;DHT22;9882;51.166;6.992;2023-06-14T02:38:57;23.30;88.60
19483;DHT22;9882;51.166;6.992;2023-06-14T02:41:26;23.20;88.80
19483;DHT22;9882;51.166;6.992;2023-06-14T02:43:56;23.20;90.80
19483;DHT22;9882;51.166;6.992;2023-06-14T02:46:28;23.10;88.70
19483;DHT22;9882;51.166;6.992;2023-06-14T02:48:57;23.10;89.10
19483;DHT22;9882;51.166;6.992;2023-06-14T02:51:26;23.10;89.50
19483;DHT22;9882;51.166;6.992;2023-06-14T02:53:55;23.00;90.10
19483;DHT22;9882;51.166;6.992;2023-06-14T02:56:24;23.00;90.60
19483;DHT22;9882;51.166;6.992;2023-06-14T02:58:56;22.90;90.50
19483;DHT22;9882;51.166;6.992;2023-06-14T03:01:26;22.80;87.80
19483;DHT22;9882;51.166;6.992;2023-06-14T03:04:05;22.80;90.00
19483;DHT22;9882;51.166;6.992;2023-06-14T03:06:36;22.80;86.70
19483;DHT22;9882;51.166;6.992;2023-06-14T03:09:08;22.80;88.80
19483;DHT22;9882;51.166;6.992;2023-06-14T03:11:39;22.70;90.50
19483;DHT22;9882;51.166;6.992;2023-06-14T03:14:10;22.70;91.40
19483;DHT22;9882;51.166;6.992;2023-06-14T03:16:42;22.60;91.30
19483;DHT22;9882;51.166;6.992;2023-06-14T03:19:13;22.30;92.20
19483;DHT22;9882;51.166;6.992;2023-06-14T03:21:43;22.50;92.50
19483;DHT22;9882;51.166;6.992;2023-06-14T03:24:12;22.50;93.10
19483;DHT22;9882;51.166;6.992;2023-06-14T03:26:41;22.60;93.00
19483;DHT22;9882;51.166;6.992;2023-06-14T03:29:12;22.50;93.10
19483;DHT22;9882;51.166;6.992;2023-06-14T03:31:56;22.50;93.10
19483;DHT22;9882;51.166;6.992;2023-06-14T03:34:27;22.50;92.20
19483;DHT22;9882;51.166;6.992;2023-06-14T03:36:56;21.40;85.30
19483;DHT22;9882;51.166;6.992;2023-06-14T03:39:25;21.10;91.80
19483;DHT22;9882;51.166;6.992;2023-06-14T03:41:55;21.70;94.50
19483;DHT22;9882;51.166;6.992;2023-06-14T03:44:26;21.70;93.80
19483;DHT22;9882;51.166;6.992;2023-06-14T03:46:55;21.90;95.60
19483;DHT22;9882;51.166;6.992;2023-06-14T03:49:26;22.00;96.50
19483;DHT22;9882;51.166;6.992;2023-06-14T03:51:55;22.10;95.80
19483;DHT22;9882;51.166;6.992;2023-06-14T03:54:24;22.10;95.30
19483;DHT22;9882;51.166;6.992;2023-06-14T03:57:14;22.10;95.10
19483;DHT22;9882;51.166;6.992;2023-06-14T03:59:48;22.00;94.80
19483;DHT22;9882;51.166;6.992;2023-06-14T04:02:17;21.60;93.60
19483;DHT22;9882;51.166;6.992;2023-06-14T04:04:47;21.80;97.60
19483;DHT22;9882;51.166;6.992;2023-06-14T04:07:16;21.70;98.00
19483;DHT22;9882;51.166;6.992;2023-06-14T04:09:47;21.80;99.00
19483;DHT22;9882;51.166;6.992;2023-06-14T04:12:16;21.80;97.60
19483;DHT22;9882;51.166;6.992;2023-06-14T04:14:46;21.80;97.00
19483;DHT22;9882;51.166;6.992;2023-06-14T04:17:15;21.90;97.70
19483;DHT22;9882;51.166;6.992;2023-06-14T04:19:45;21.80;97.80
19483;DHT22;9882;51.166;6.992;2023-06-14T04:22:15;21.80;98.80
19483;DHT22;9882;51.166;6.992;2023-06-14T04:24:44;21.80;99.20
19483;DHT22;9882;51.166;6.992;2023-06-14T04:27:14;21.80;99.90
19483;DHT22;9882;51.166;6.992;2023-06-14T04:29:50;21.80;99.90
19483;DHT22;9882;51.166;6.992;2023-06-14T04:32:27;21.70;99.90
19483;DHT22;9882;51.166;6.992;2023-06-14T04:34:57;21.70;99.90
19483;DHT22;9882;51.166;6.992;2023-06-14T04:37:26;21.70;99.90
19483;DHT22;9882;51.166;6.992;2023-06-14T04:39:58;21.70;99.70
19483;DHT22;9882;51.166;6.992;2023-06-14T04:42:27;21.60;98.70
19483;DHT22;9882;51.166;6.992;2023-06-14T04:45:01;21.60;95.70
19483;DHT22;9882;51.166;6.992;2023-06-14T04:47:30;21.60;96.90
19483;DHT22;9882;51.166;6.992;2023-06-14T04:50:00;21.60;99.90
19483;DHT22;9882;51.166;6.992;2023-06-14T04:52:31;21.60;99.90
19483;DHT22;9882;51.166;6.992;2023-06-14T04:55:00;21.60;99.90
19483;DHT22;9882;51.166;6.992;2023-06-14T04:57:29;21.50;99.80
19483;DHT22;9882;51.166;6.992;2023-06-14T05:00:10;21.30;99.00
19483;DHT22;9882;51.166;6.992;2023-06-14T05:02:47;21.20;96.60
19483;DHT22;9882;51.166;6.992;2023-06-14T05:05:18;21.10;93.70
19483;DHT22;9882;51.166;6.992;2023-06-14T05:07:47;20.80;96.30
19483;DHT22;9882;51.166;6.992;2023-06-14T05:10:17;20.50;92.30
19483;DHT22;9882;51.166;6.992;2023-06-14T05:12:46;20.80;91.40
19483;DHT22;9882;51.166;6.992;2023-06-14T05:15:24;20.70;92.10
19483;DHT22;9882;51.166;6.992;2023-06-14T05:18:00;20.80;90.50
19483;DHT22;9882;51.166;6.992;2023-06-14T05:20:33;20.60;92.00
19483;DHT22;9882;51.166;6.992;2023-06-14T05:23:02;20.70;90.60
19483;DHT22;9882;51.166;6.992;2023-06-14T05:25:32;20.80;90.00
19483;DHT22;9882;51.166;6.992;2023-06-14T05:28:01;20.80;89.30
19483;DHT22;9882;51.166;6.992;2023-06-14T05:30:31;20.80;88.50
19483;DHT22;9882;51.166;6.992;2023-06-14T05:33:00;20.70;87.50
19483;DHT22;9882;51.166;6.992;2023-06-14T05:35:30;20.70;87.20
19483;DHT22;9882;51.166;6.992;2023-06-14T05:37:59;20.50;88.40
19483;DHT22;9882;51.166;6.992;2023-06-14T05:40:28;20.50;88.40
19483;DHT22;9882;51.166;6.992;2023-06-14T05:42:57;20.40;90.10
19483;DHT22;9882;51.166;6.992;2023-06-14T05:45:26;20.10;91.30
19483;DHT22;9882;51.166;6.992;2023-06-14T05:47:57;20.30;90.90
19483;DHT22;9882;51.166;6.992;2023-06-14T05:50:26;20.40;90.70
19483;DHT22;9882;51.166;6.992;2023-06-14T05:52:55;20.60;88.70
19483;DHT22;9882;51.166;6.992;2023-06-14T05:55:24;20.70;87.20
19483;DHT22;9882;51.166;6.992;2023-06-14T05:57:55;20.60;88.00
19483;DHT22;9882;51.166;6.992;2023-06-14T06:00:24;20.50;88.30
19483;DHT22;9882;51.166;6.992;2023-06-14T06:02:54;20.30;90.20
19483;DHT22;9882;51.166;6.992;2023-06-14T06:05:26;20.40;89.30
19483;DHT22;9882;51.166;6.992;2023-06-14T06:07:55;20.40;89.70
19483;DHT22;9882;51.166;6.992;2023-06-14T06:10:24;20.50;90.10
19483;DHT22;9882;51.166;6.992;2023-06-14T06:12:53;20.30;90.50
19483;DHT22;9882;51.166;6.992;2023-06-14T06:15:22;20.40;88.90
19483;DHT22;9882;51.166;6.992;2023-06-14T06:17:51;20.50;89.00
19483;DHT22;9882;51.166;6.992;2023-06-14T06:20:22;20.50;88.50
19483;DHT22;9882;51.166;6.992;2023-06-14T06:22:57;20.50;87.90
19483;DHT22;9882;51.166;6.992;2023-06-14T06:25:27;20.60;86.30
19483;DHT22;9882;51.166;6.992;2023-06-14T06:27:56;20.60;87.20
19483;DHT22;9882;51.166;6.992;2023-06-14T06:30:25;20.60;88.90
19483;DHT22;9882;51.166;6.992;2023-06-14T06:32:54;20.50;87.80
19483;DHT22;9882;51.166;6.992;2023-06-14T06:35:24;20.60;89.50
19483;DHT22;9882;51.166;6.992;2023-06-14T06:37:53;20.50;88.50
19483;DHT22;9882;51.166;6.992;2023-06-14T06:40:24;20.50;90.60
19483;DHT22;9882;51.166;6.992;2023-06-14T06:42:53;20.50;88.90
19483;DHT22;9882;51.166;6.992;2023-06-14T06:45:22;20.50;87.80
19483;DHT22;9882;51.166;6.992;2023-06-14T06:47:52;20.60;88.70
19483;DHT22;9882;51.166;6.992;2023-06-14T06:50:21;20.60;86.90
19483;DHT22;9882;51.166;6.992;2023-06-14T06:52:52;20.50;85.00
19483;DHT22;9882;51.166;6.992;2023-06-14T06:55:21;20.60;87.80
19483;DHT22;9882;51.166;6.992;2023-06-14T06:57:52;20.60;85.70
19483;DHT22;9882;51.166;6.992;2023-06-14T07:00:21;20.60;82.40
19483;DHT22;9882;51.166;6.992;2023-06-14T07:02:51;20.60;82.70
19483;DHT22;9882;51.166;6.992;2023-06-14T07:05:20;20.60;82.30
19483;DHT22;9882;51.166;6.992;2023-06-14T07:07:49;20.70;84.00
19483;DHT22;9882;51.166;6.992;2023-06-14T07:10:18;20.70;82.50
19483;DHT22;9882;51.166;6.992;2023-06-14T07:12:46;20.70;83.10
19483;DHT22;9882;51.166;6.992;2023-06-14T07:15:17;20.70;84.70
19483;DHT22;9882;51.166;6.992;2023-06-14T07:17:46;20.80;81.90
19483;DHT22;9882;51.166;6.992;2023-06-14T07:20:15;20.80;81.50
19483;DHT22;9882;51.166;6.992;2023-06-14T07:22:44;20.80;81.70
19483;DHT22;9882;51.166;6.992;2023-06-14T07:25:14;20.80;78.70
19483;DHT22;9882;51.166;6.992;2023-06-14T07:27:45;20.90;79.50
19483;DHT22;9882;51.166;6.992;2023-06-14T07:30:13;20.90;78.80
19483;DHT22;9882;51.166;6.992;2023-06-14T07:32:44;20.90;76.50
19483;DHT22;9882;51.166;6.992;2023-06-14T07:35:13;20.90;75.10
19483;DHT22;9882;51.166;6.992;2023-06-14T07:37:42;20.90;75.70
19483;DHT22;9882;51.166;6.992;2023-06-14T07:40:12;20.90;74.90
19483;DHT22;9882;51.166;6.992;2023-06-14T07:42:41;20.90;74.00
19483;DHT22;9882;51.166;6.992;2023-06-14T07:45:11;21.00;75.10
19483;DHT22;9882;51.166;6.992;2023-06-14T07:47:41;21.00;72.40
19483;DHT22;9882;51.166;6.992;2023-06-14T07:50:11;21.10;73.90
19483;DHT22;9882;51.166;6.992;2023-06-14T07:52:41;21.10;72.90
19483;DHT22;9882;51.166;6.992;2023-06-14T07:55:09;21.10;73.00
19483;DHT22;9882;51.166;6.992;2023-06-14T07:57:38;21.20;71.50
19483;DHT22;9882;51.166;6.992;2023-06-14T08:00:08;21.20;72.40
19483;DHT22;9882;51.166;6.992;2023-06-14T08:02:42;21.30;68.10
19483;DHT22;9882;51.166;6.992;2023-06-14T08:05:12;21.30;66.20
19483;DHT22;9882;51.166;6.992;2023-06-14T08:07:42;21.30;68.80
19483;DHT22;9882;51.166;6.992;2023-06-14T08:10:11;21.30;67.90
19483;DHT22;9882;51.166;6.992;2023-06-14T08:12:40;21.40;68.70
19483;DHT22;9882;51.166;6.992;2023-06-14T08:15:09;21.50;68.80
19483;DHT22;9882;51.166;6.992;2023-06-14T08:17:41;21.50;65.90
19483;DHT22;9882;51.166;6.992;2023-06-14T08:20:12;21.60;66.60
19483;DHT22;9882;51.166;6.992;2023-06-14T08:22:43;21.70;67.50
19483;DHT22;9882;51.166;6.992;2023-06-14T08:25:14;21.80;67.60
19483;DHT22;9882;51.166;6.992;2023-06-14T08:27:43;21.80;68.20
19483;DHT22;9882;51.166;6.992;2023-06-14T08:30:13;21.90;67.90
19483;DHT22;9882;51.166;6.992;2023-06-14T08:32:42;21.90;65.80
19483;DHT22;9882;51.166;6.992;2023-06-14T08:35:13;21.90;65.20
19483;DHT22;9882;51.166;6.992;2023-06-14T08:37:42;21.80;67.50
19483;DHT22;9882;51.166;6.992;2023-06-14T08:40:18;21.80;69.40
19483;DHT22;9882;51.166;6.992;2023-06-14T08:42:51;21.90;69.80
19483;DHT22;9882;51.166;6.992;2023-06-14T08:45:21;21.90;71.80
19483;DHT22;9882;51.166;6.992;2023-06-14T08:47:51;22.00;71.20
19483;DHT22;9882;51.166;6.992;2023-06-14T08:50:27;22.00;70.70
19483;DHT22;9882;51.166;6.992;2023-06-14T08:52:59;22.10;72.50
19483;DHT22;9882;51.166;6.992;2023-06-14T08:55:30;22.10;70.80
19483;DHT22;9882;51.166;6.992;2023-06-14T08:58:02;22.00;71.80
19483;DHT22;9882;51.166;6.992;2023-06-14T09:00:32;22.00;72.50
19483;DHT22;9882;51.166;6.992;2023-06-14T09:03:01;21.90;70.30
19483;DHT22;9882;51.166;6.992;2023-06-14T09:05:32;22.10;72.00
19483;DHT22;9882;51.166;6.992;2023-06-14T09:08:01;22.20;73.80
19483;DHT22;9882;51.166;6.992;2023-06-14T09:10:33;22.20;72.30
19483;DHT22;9882;51.166;6.992;2023-06-14T09:13:04;22.10;70.70
19483;DHT22;9882;51.166;6.992;2023-06-14T09:15:35;22.10;71.40
19483;DHT22;9882;51.166;6.992;2023-06-14T09:18:04;22.20;69.60
19483;DHT22;9882;51.166;6.992;2023-06-14T09:20:35;22.10;71.90
19483;DHT22;9882;51.166;6.992;2023-06-14T09:23:04;22.20;72.90
19483;DHT22;9882;51.166;6.992;2023-06-14T09:25:42;22.50;72.20
19483;DHT22;9882;51.166;6.992;2023-06-14T09:28:12;22.70;71.10
19483;DHT22;9882;51.166;6.992;2023-06-14T09:30:41;22.60;71.60
19483;DHT22;9882;51.166;6.992;2023-06-14T09:33:10;22.50;70.90
19483;DHT22;9882;51.166;6.992;2023-06-14T09:35:41;22.50;69.00
19483;DHT22;9882;51.166;6.992;2023-06-14T09:38:10;22.80;70.00
19483;DHT22;9882;51.166;6.992;2023-06-14T09:40:39;22.70;70.50
19483;DHT22;9882;51.166;6.992;2023-06-14T09:43:08;22.70;70.60
19483;DHT22;9882;51.166;6.992;2023-06-14T09:45:39;22.50;70.40
19483;DHT22;9882;51.166;6.992;2023-06-14T09:48:08;22.10;72.50
19483;DHT22;9882;51.166;6.992;2023-06-14T09:50:37;22.10;74.30
19483;DHT22;9882;51.166;6.992;2023-06-14T09:53:11;22.50;75.50
19483;DHT22;9882;51.166;6.992;2023-06-14T09:55:41;22.70;74.60
19483;DHT22;9882;51.166;6.992;2023-06-14T09:58:10;22.50;74.70
19483;DHT22;9882;51.166;6.992;2023-06-14T10:00:41;22.40;76.60
19483;DHT22;9882;51.166;6.992;2023-06-14T10:03:13;22.40;78.10
19483;DHT22;9882;51.166;6.992;2023-06-14T10:05:45;22.40;76.90
19483;DHT22;9882;51.166;6.992;2023-06-14T10:08:18;22.40;76.30
19483;DHT22;9882;51.166;6.992;2023-06-14T10:10:48;22.70;77.30
19483;DHT22;9882;51.166;6.992;2023-06-14T10:13:17;22.80;76.50
19483;DHT22;9882;51.166;6.992;2023-06-14T10:15:52;22.70;77.50
19483;DHT22;9882;51.166;6.992;2023-06-14T10:18:32;22.70;78.00
19483;DHT22;9882;51.166;6.992;2023-06-14T10:21:13;22.90;77.10
19483;DHT22;9882;51.166;6.992;2023-06-14T10:23:47;22.60;78.40
19483;DHT22;9882;51.166;6.992;2023-06-14T10:26:20;22.70;78.50
19483;DHT22;9882;51.166;6.992;2023-06-14T10:29:00;23.40;77.40
19483;DHT22;9882;51.166;6.992;2023-06-14T10:31:43;23.30;76.70
19483;DHT22;9882;51.166;6.992;2023-06-14T10:34:13;23.50;74.90
19483;DHT22;9882;51.166;6.992;2023-06-14T10:37:04;23.50;74.40
19483;DHT22;9882;51.166;6.992;2023-06-14T10:39:38;23.50;75.00
19483;DHT22;9882;51.166;6.992;2023-06-14T10:42:09;23.10;74.50
19483;DHT22;9882;51.166;6.992;2023-06-14T10:44:42;23.40;75.00
19483;DHT22;9882;51.166;6.992;2023-06-14T10:47:26;23.40;74.90
19483;DHT22;9882;51.166;6.992;2023-06-14T10:49:55;23.50;75.20
19483;DHT22;9882;51.166;6.992;2023-06-14T10:52:27;23.30;73.90
19483;DHT22;9882;51.166;6.992;2023-06-14T10:55:13;23.30;75.80
19483;DHT22;9882;51.166;6.992;2023-06-14T10:57:45;23.50;75.40
19483;DHT22;9882;51.166;6.992;2023-06-14T11:00:19;23.10;73.40
19483;DHT22;9882;51.166;6.992;2023-06-14T11:03:23;23.00;77.40
19483;DHT22;9882;51.166;6.992;2023-06-14T11:05:57;23.00;77.70
19483;DHT22;9882;51.166;6.992;2023-06-14T11:08:51;23.50;75.90
19483;DHT22;9882;51.166;6.992;2023-06-14T11:11:32;23.80;75.80
19483;DHT22;9882;51.166;6.992;2023-06-14T11:14:02;23.20;73.90
19483;DHT22;9882;51.166;6.992;2023-06-14T11:16:31;23.60;76.30
19483;DHT22;9882;51.166;6.992;2023-06-14T11:19:01;23.60;76.60
19483;DHT22;9882;51.166;6.992;2023-06-14T11:21:32;24.00;75.40
19483;DHT22;9882;51.166;6.992;2023-06-14T11:24:01;24.40;73.10
19483;DHT22;9882;51.166;6.992;2023-06-14T11:26:32;24.40;69.40
19483;DHT22;9882;51.166;6.992;2023-06-14T11:29:03;24.40;70.20
19483;DHT22;9882;51.166;6.992;2023-06-14T11:31:32;24.60;71.90
19483;DHT22;9882;51.166;6.992;2023-06-14T11:34:01;24.70;71.20
19483;DHT22;9882;51.166;6.992;2023-06-14T11:36:33;24.70;68.40
19483;DHT22;9882;51.166;6.992;2023-06-14T11:39:04;24.70;66.10
19483;DHT22;9882;51.166;6.992;2023-06-14T11:41:38;24.90;67.60
19483;DHT22;9882;51.166;6.992;2023-06-14T11:44:08;24.80;63.00
19483;DHT22;9882;51.166;6.992;2023-06-14T11:46:37;24.80;67.10
19483;DHT22;9882;51.166;6.992;2023-06-14T11:49:07;25.00;64.20
19483;DHT22;9882;51.166;6.992;2023-06-14T11:51:37;25.10;62.90
19483;DHT22;9882;51.166;6.992;2023-06-14T11:54:06;25.10;64.90
19483;DHT22;9882;51.166;6.992;2023-06-14T11:56:38;25.20;64.30
19483;DHT22;9882;51.166;6.992;2023-06-14T11:59:07;25.10;62.70
19483;DHT22;9882;51.166;6.992;2023-06-14T12:01:37;25.10;59.20
19483;DHT22;9882;51.166;6.992;2023-06-14T12:04:07;24.80;61.10
19483;DHT22;9882;51.166;6.992;2023-06-14T12:06:36;24.80;63.40
19483;DHT22;9882;51.166;6.992;2023-06-14T12:09:07;24.90;63.50
19483;DHT22;9882;51.166;6.992;2023-06-14T12:11:41;24.90;60.80
19483;DHT22;9882;51.166;6.992;2023-06-14T12:14:10;25.10;64.10
19483;DHT22;9882;51.166;6.992;2023-06-14T12:16:40;25.10;62.80
19483;DHT22;9882;51.166;6.992;2023-06-14T12:19:13;25.10;61.90
19483;DHT22;9882;51.166;6.992;2023-06-14T12:21:43;25.30;62.20
19483;DHT22;9882;51.166;6.992;2023-06-14T12:24:15;25.40;62.50
19483;DHT22;9882;51.166;6.992;2023-06-14T12:26:46;25.40;62.70
19483;DHT22;9882;51.166;6.992;2023-06-14T12:29:15;25.60;62.60
19483;DHT22;9882;51.166;6.992;2023-06-14T12:31:44;25.70;61.90
19483;DHT22;9882;51.166;6.992;2023-06-14T12:34:13;25.80;59.80
19483;DHT22;9882;51.166;6.992;2023-06-14T12:36:42;25.90;60.40
19483;DHT22;9882;51.166;6.992;2023-06-14T12:39:13;25.90;59.90
19483;DHT22;9882;51.166;6.992;2023-06-14T12:41:42;26.00;61.70
19483;DHT22;9882;51.166;6.992;2023-06-14T12:44:13;26.00;59.90
19483;DHT22;9882;51.166;6.992;2023-06-14T12:46:42;26.10;61.40
19483;DHT22;9882;51.166;6.992;2023-06-14T12:49:12;26.30;61.70
19483;DHT22;9882;51.166;6.992;2023-06-14T12:51:41;26.30;61.20
19483;DHT22;9882;51.166;6.992;2023-06-14T12:54:10;26.40;60.90
19483;DHT22;9882;51.166;6.992;2023-06-14T12:56:39;26.40;61.40
19483;DHT22;9882;51.166;6.992;2023-06-14T12:59:09;26.50;60.20
19483;DHT22;9882;51.166;6.992;2023-06-14T13:01:39;26.40;59.90
19483;DHT22;9882;51.166;6.992;2023-06-14T13:04:08;26.50;60.60
19483;DHT22;9882;51.166;6.992;2023-06-14T13:06:37;26.60;60.00
19483;DHT22;9882;51.166;6.992;2023-06-14T13:09:06;26.80;60.30
19483;DHT22;9882;51.166;6.992;2023-06-14T13:11:36;26.90;59.60
19483;DHT22;9882;51.166;6.992;2023-06-14T13:14:06;26.80;59.30
19483;DHT22;9882;51.166;6.992;2023-06-14T13:16:49;26.70;57.50
19483;DHT22;9882;51.166;6.992;2023-06-14T13:19:18;26.80;57.20
19483;DHT22;9882;51.166;6.992;2023-06-14T13:21:48;26.90;58.60
19483;DHT22;9882;51.166;6.992;2023-06-14T13:24:17;26.90;59.00
19483;DHT22;9882;51.166;6.992;2023-06-14T13:26:46;26.80;59.00
19483;DHT22;9882;51.166;6.992;2023-06-14T13:29:15;26.90;58.90
19483;DHT22;9882;51.166;6.992;2023-06-14T13:31:44;27.40;59.00
19483;DHT22;9882;51.166;6.992;2023-06-14T13:34:15;27.80;58.80
19483;DHT22;9882;51.166;6.992;2023-06-14T13:36:44;28.20;57.50
19483;DHT22;9882;51.166;6.992;2023-06-14T13:39:13;28.50;56.60
19483;DHT22;9882;51.166;6.992;2023-06-14T13:41:42;28.60;56.60
19483;DHT22;9882;51.166;6.992;2023-06-14T13:44:12;29.20;56.60
19483;DHT22;9882;51.166;6.992;2023-06-14T13:46:43;29.30;54.90
19483;DHT22;9882;51.166;6.992;2023-06-14T13:49:12;29.10;54.00
19483;DHT22;9882;51.166;6.992;2023-06-14T13:51:42;28.70;53.90
19483;DHT22;9882;51.166;6.992;2023-06-14T13:54:12;28.50;56.00
19483;DHT22;9882;51.166;6.992;2023-06-14T13:56:42;28.40;54.60
19483;DHT22;9882;51.166;6.992;2023-06-14T13:59:11;28.90;55.00
19483;DHT22;9882;51.166;6.992;2023-06-14T14:01:41;29.10;55.00
19483;DHT22;9882;51.166;6.992;2023-06-14T14:04:09;29.50;52.20
19483;DHT22;9882;51.166;6.992;2023-06-14T14:06:38;30.00;53.20
19483;DHT22;9882;51.166;6.992;2023-06-14T14:09:09;30.30;50.50
19483;DHT22;9882;51.166;6.992;2023-06-14T14:11:39;30.30;50.70
19483;DHT22;9882;51.166;6.992;2023-06-14T14:14:09;29.30;51.70
19483;DHT22;9882;51.166;6.992;2023-06-14T14:16:38;28.70;50.70
19483;DHT22;9882;51.166;6.992;2023-06-14T14:19:08;28.80;53.10
19483;DHT22;9882;51.166;6.992;2023-06-14T14:21:37;28.60;53.50
19483;DHT22;9882;51.166;6.992;2023-06-14T14:24:06;29.30;51.00
19483;DHT22;9882;51.166;6.992;2023-06-14T14:26:36;29.60;51.00
19483;DHT22;9882;51.166;6.992;2023-06-14T14:29:05;30.10;49.30
19483;DHT22;9882;51.166;6.992;2023-06-14T14:31:34;30.50;50.30
19483;DHT22;9882;51.166;6.992;2023-06-14T14:34:03;30.70;47.10
19483;DHT22;9882;51.166;6.992;2023-06-14T14:36:32;31.30;50.00
19483;DHT22;9882;51.166;6.992;2023-06-14T14:39:05;31.30;47.50
19483;DHT22;9882;51.166;6.992;2023-06-14T14:41:36;31.00;47.30
19483;DHT22;9882;51.166;6.992;2023-06-14T14:44:07;30.50;48.80
19483;DHT22;9882;51.166;6.992;2023-06-14T14:46:36;30.10;49.90
19483;DHT22;9882;51.166;6.992;2023-06-14T14:49:05;29.90;48.90
19483;DHT22;9882;51.166;6.992;2023-06-14T14:51:34;30.30;50.10
19483;DHT22;9882;51.166;6.992;2023-06-14T14:54:03;30.70;49.90
19483;DHT22;9882;51.166;6.992;2023-06-14T14:56:35;31.10;49.70
19483;DHT22;9882;51.166;6.992;2023-06-14T14:59:06;31.40;48.70
19483;DHT22;9882;51.166;6.992;2023-06-14T15:01:34;31.80;47.10
19483;DHT22;9882;51.166;6.992;2023-06-14T15:04:04;31.70;47.70
19483;DHT22;9882;51.166;6.992;2023-06-14T15:06:33;31.70;45.00
19483;DHT22;9882;51.166;6.992;2023-06-14T15:09:04;32.20;47.00
19483;DHT22;9882;51.166;6.992;2023-06-14T15:11:33;32.30;45.30
19483;DHT22;9882;51.166;6.992;2023-06-14T15:14:03;32.30;46.50
19483;DHT22;9882;51.166;6.992;2023-06-14T15:16:33;31.40;46.70
19483;DHT22;9882;51.166;6.992;2023-06-14T15:19:01;31.50;47.90
19483;DHT22;9882;51.166;6.992;2023-06-14T15:21:32;31.70;47.60
19483;DHT22;9882;51.166;6.992;2023-06-14T15:24:01;31.70;48.20
19483;DHT22;9882;51.166;6.992;2023-06-14T15:26:30;31.40;43.90
19483;DHT22;9882;51.166;6.992;2023-06-14T15:28:59;31.60;43.60
19483;DHT22;9882;51.166;6.992;2023-06-14T15:31:30;31.70;45.80
19483;DHT22;9882;51.166;6.992;2023-06-14T15:33:59;31.80;44.90
19483;DHT22;9882;51.166;6.992;2023-06-14T15:36:28;32.10;45.50
19483;DHT22;9882;51.166;6.992;2023-06-14T15:38:57;31.70;47.10
19483;DHT22;9882;51.166;6.992;2023-06-14T15:41:26;32.10;47.60
19483;DHT22;9882;51.166;6.992;2023-06-14T15:43:54;32.70;46.60
19483;DHT22;9882;51.166;6.992;2023-06-14T15:46:23;32.50;45.40
19483;DHT22;9882;51.166;6.992;2023-06-14T15:48:54;32.40;46.10
19483;DHT22;9882;51.166;6.992;2023-06-14T15:51:23;32.60;46.00
19483;DHT22;9882;51.166;6.992;2023-06-14T15:53:51;32.80;45.10
19483;DHT22;9882;51.166;6.992;2023-06-14T15:56:21;32.90;45.10
19483;DHT22;9882;51.166;6.992;2023-06-14T15:58:49;33.00;44.90
19483;DHT22;9882;51.166;6.992;2023-06-14T16:01:19;33.10;43.60
19483;DHT22;9882;51.166;6.992;2023-06-14T16:03:48;33.40;43.00
19483;DHT22;9882;51.166;6.992;2023-06-14T16:06:18;33.40;42.80